Time;durP1;ratioP1;P1;durP2;ratioP2;P2;SDS_P1;SDS_P2;PMS_P1;PMS_P2;Temp;Humidity;BMP_temperature;BMP_pressure;BME280_temperature;BME280_humidity;BME280_pressure;Samples;Min_cycle;Max_cycle;Signal;HPM_P1;HPM_P2
2022/06/15 00:14:55;;;;;;;9.63;3.08;;;22.30;99.90;;;;;;4753289;30;20059;-87
2022/06/15 00:25:37;;;;;;;6.47;2.85;;;22.10;99.90;;;;;;4827070;29;20544;-87
2022/06/15 00:45:38;;;;;;;;;;;;;;;;;;;;;
2022/06/15 02:07:45;;;;;;;8.73;2.83;;;21.40;99.90;;;;;;4751241;30;20520;-88
2022/06/15 03:29:53;;;;;;;;;;;;;;;;;;;;;
2022/06/15 05:58:11;;;;;;;4.10;1.83;;;31.40;88.80;;;;;;4634685;31;20065;-85
2022/06/15 09:44:14;;;;;;;6.10;2.22;;;31.40;85.90;;;;;;3732628;29;20042;-80
2022/06/15 09:46:47;;;;;;;13.05;2.65;;;31.10;85.20;;;;;;4805854;29;20043;-83
2022/06/15 09:49:33;;;;;;;13.80;2.45;;;30.90;85.20;;;;;;4820325;29;20074;-79
2022/06/15 09:52:25;;;;;;;12.65;2.40;;;31.00;85.30;;;;;;4794734;29;20088;-81
2022/06/15 09:55:09;;;;;;;16.60;2.65;;;31.10;85.10;;;;;;4814922;29;20031;-80
2022/06/15 09:57:40;;;;;;;21.30;2.53;;;31.10;85.10;;;;;;4819407;29;20047;-82
2022/06/15 10:00:09;;;;;;;7.50;2.65;;;31.20;84.80;;;;;;4823184;29;20065;-81
2022/06/15 10:02:39;;;;;;;7.55;2.72;;;31.30;84.40;;;;;;4817406;29;20395;-79
2022/06/15 10:05:13;;;;;;;12.60;2.65;;;31.30;85.30;;;;;;4815204;29;20037;-80
2022/06/15 10:07:43;;;;;;;6.82;2.65;;;31.30;84.80;;;;;;4824626;29;20042;-77
2022/06/15 10:13:02;;;;;;;7.05;2.22;;;31.70;84.50;;;;;;4836940;29;20121;-77
2022/06/15 10:16:02;;;;;;;6.05;2.10;;;31.80;84.30;;;;;;4824028;29;20121;-77
2022/06/15 10:18:51;;;;;;;8.32;2.20;;;31.80;85.00;;;;;;4826319;29;20403;-77
2022/06/15 10:21:23;;;;;;;8.63;1.70;;;31.60;84.60;;;;;;4845830;29;20398;-76
2022/06/15 10:24:01;;;;;;;6.35;2.63;;;31.50;86.10;;;;;;4842510;29;20040;-74
2022/06/15 10:26:38;;;;;;;6.80;2.35;;;31.20;87.10;;;;;;4843265;29;20112;-73
2022/06/15 10:29:15;;;;;;;9.55;2.58;;;31.20;88.70;;;;;;4841994;29;20038;-72
2022/06/15 10:32:13;;;;;;;8.43;2.55;;;31.30;88.80;;;;;;4825765;29;20095;-74
2022/06/15 10:34:45;;;;;;;9.05;3.70;;;31.40;88.80;;;;;;4841548;29;20034;-74
2022/06/15 10:37:29;;;;;;;7.47;2.53;;;31.50;88.90;;;;;;4842209;29;20045;-73
2022/06/15 10:39:58;;;;;;;8.38;2.33;;;31.40;89.50;;;;;;4842323;29;20057;-74
2022/06/15 10:42:33;;;;;;;10.02;2.80;;;31.50;89.70;;;;;;4841606;29;20079;-73
2022/06/15 10:45:02;;;;;;;6.43;2.38;;;31.20;89.50;;;;;;4824777;29;20030;-73
2022/06/15 10:47:54;;;;;;;5.47;2.25;;;31.20;90.00;;;;;;4843232;29;20121;-74
2022/06/15 10:50:34;;;;;;;5.88;2.50;;;31.30;90.00;;;;;;4841520;29;20038;-79
2022/06/15 10:53:05;;;;;;;4.88;2.17;;;31.30;90.20;;;;;;4840317;29;20452;-74
2022/06/15 11:04:05;;;;;;;9.70;3.08;;;30.70;91.70;;;;;;4841461;29;20033;-73
2022/06/15 11:06:43;;;;;;;7.72;2.53;;;30.70;92.50;;;;;;4840762;29;20407;-75
2022/06/15 11:09:25;;;;;;;7.93;3.42;;;30.70;92.20;;;;;;4841905;29;20424;-74
2022/06/15 11:11:51;;;;;;;;;;;30.60;92.40;;;;;;4840687;29;20049;-74
2022/06/15 11:14:26;;;;;;;11.73;2.58;;;30.60;92.70;;;;;;4840598;29;19912;-74
2022/06/15 11:19:53;;;;;;;22.20;3.47;;;30.40;93.10;;;;;;4840057;29;20057;-74
2022/06/15 11:22:21;;;;;;;9.10;2.75;;;30.30;93.70;;;;;;4842051;29;20050;-74
2022/06/15 11:25:06;;;;;;;7.53;3.03;;;30.30;94.00;;;;;;4825495;29;20037;-74
2022/06/15 11:27:39;;;;;;;6.68;2.65;;;30.10;93.90;;;;;;4840542;29;20435;-74
2022/06/15 11:30:22;;;;;;;7.97;2.90;;;30.10;94.20;;;;;;4840666;29;20025;-74
2022/06/15 11:33:12;;;;;;;9.82;2.85;;;30.20;94.60;;;;;;4825521;29;20040;-75
2022/06/15 11:36:03;;;;;;;9.93;3.17;;;30.20;93.90;;;;;;4840540;29;20034;-74
2022/06/15 11:38:28;;;;;;;4.10;2.53;;;30.20;93.50;;;;;;4837772;29;20054;-76
2022/06/15 11:41:07;;;;;;;5.50;2.42;;;30.20;93.40;;;;;;4840426;29;20041;-74
2022/06/15 11:43:36;;;;;;;8.73;2.97;;;30.20;92.80;;;;;;4840930;29;20053;-74
2022/06/15 11:46:14;;;;;;;10.02;2.72;;;30.10;93.20;;;;;;4823378;29;20034;-73
2022/06/15 11:49:14;;;;;;;8.15;2.78;;;29.90;92.90;;;;;;4823497;29;20558;-74
2022/06/15 11:52:06;;;;;;;7.25;2.33;;;30.00;92.80;;;;;;4837313;29;20042;-75
2022/06/15 11:54:53;;;;;;;5.95;2.47;;;30.20;93.50;;;;;;4837019;29;20542;-74
2022/06/15 11:57:35;;;;;;;4.35;2.60;;;30.20;93.50;;;;;;4839643;29;20601;-74
2022/06/15 12:00:31;;;;;;;4.90;2.00;;;30.30;93.50;;;;;;4838316;29;20057;-77
2022/06/15 12:03:02;;;;;;;5.43;2.22;;;30.20;94.00;;;;;;4838396;29;20038;-76
2022/06/15 12:05:31;;;;;;;5.28;2.10;;;30.00;93.60;;;;;;4841273;29;20112;-76
2022/06/15 12:08:15;;;;;;;6.85;2.70;;;30.00;93.40;;;;;;4823686;29;20069;-76
2022/06/15 12:11:05;;;;;;;9.45;2.70;;;29.80;94.20;;;;;;4823710;29;20046;-72
2022/06/15 12:13:39;;;;;;;10.20;2.80;;;29.60;94.10;;;;;;4833919;29;20091;-76
2022/06/15 12:16:35;;;;;;;11.27;3.85;;;29.40;93.80;;;;;;4840389;29;20117;-81
2022/06/15 12:19:39;;;;;;;12.88;2.80;;;29.40;96.00;;;;;;4836633;29;20034;-75
2022/06/15 12:22:17;;;;;;;4.47;2.60;;;29.40;96.30;;;;;;4816993;29;20085;-72
2022/06/15 12:25:01;;;;;;;5.80;2.30;;;29.50;96.20;;;;;;4838180;29;20044;-75
2022/06/15 12:27:49;;;;;;;7.65;3.08;;;29.50;95.70;;;;;;4839709;29;20045;-76
2022/06/15 12:30:56;;;;;;;4.22;2.63;;;29.50;95.60;;;;;;4839199;29;20042;-72
2022/06/15 12:33:44;;;;;;;11.10;2.80;;;29.50;95.60;;;;;;4839759;29;20034;-75
2022/06/15 12:36:22;;;;;;;13.50;2.50;;;29.40;96.20;;;;;;4839545;29;20113;-75
2022/06/15 12:39:07;;;;;;;7.97;2.60;;;29.30;95.80;;;;;;4838508;29;20454;-76
2022/06/15 12:44:38;;;;;;;36.85;22.60;;;29.10;94.80;;;;;;4838495;29;20057;-76
2022/06/15 12:47:13;;;;;;;8.27;3.13;;;28.90;93.10;;;;;;4838801;29;21029;-77
2022/06/15 12:49:57;;;;;;;7.43;2.60;;;28.90;92.70;;;;;;4838078;29;20038;-73
2022/06/15 12:52:39;;;;;;;12.27;2.40;;;28.80;91.60;;;;;;4839887;29;20103;-75
2022/06/15 12:55:37;;;;;;;5.13;2.33;;;28.70;90.80;;;;;;4842916;29;20495;-78
2022/06/15 12:58:06;;;;;;;6.20;2.00;;;28.60;90.90;;;;;;4843045;29;20045;-80
2022/06/15 13:00:36;;;;;;;5.78;1.88;;;28.60;91.00;;;;;;4844143;29;20058;-77
2022/06/15 13:03:19;;;;;;;6.53;2.15;;;28.60;91.80;;;;;;4842062;29;20050;-75
2022/06/15 13:05:45;;;;;;;9.27;2.40;;;28.70;92.40;;;;;;4844401;29;20041;-84
2022/06/15 13:08:19;;;;;;;12.40;2.33;;;28.70;92.00;;;;;;4827041;29;20415;-77
2022/06/15 13:10:53;;;;;;;8.27;2.63;;;28.80;91.90;;;;;;4842372;29;20057;-71
2022/06/15 13:13:32;;;;;;;7.03;2.20;;;28.90;91.90;;;;;;4842174;29;20042;-74
2022/06/15 13:16:07;;;;;;;8.15;2.28;;;28.80;92.20;;;;;;4841638;29;20034;-71
2022/06/15 13:18:52;;;;;;;4.80;2.38;;;28.80;92.90;;;;;;4843608;29;20064;-73
2022/06/15 13:21:22;;;;;;;8.32;2.33;;;28.80;94.20;;;;;;4845801;29;20038;-74
2022/06/15 13:24:01;;;;;;;4.70;2.03;;;28.80;94.60;;;;;;4842959;29;20423;-77
2022/06/15 13:26:49;;;;;;;9.50;2.40;;;28.70;94.90;;;;;;4844151;29;20025;-73
2022/06/15 13:29:17;;;;;;;5.00;2.38;;;28.80;94.50;;;;;;4848863;29;20364;-77
2022/06/15 13:31:54;;;;;;;7.68;2.10;;;28.90;93.90;;;;;;4843358;29;20094;-77
2022/06/15 13:34:34;;;;;;;14.45;2.55;;;28.90;92.90;;;;;;4843232;29;20053;-75
2022/06/15 13:37:15;;;;;;;7.28;2.53;;;29.00;93.30;;;;;;4842853;29;20034;-72
2022/06/15 13:39:46;;;;;;;5.57;1.90;;;29.20;93.20;;;;;;4842712;29;20041;-77
2022/06/15 13:42:34;;;;;;;;;;;29.30;93.40;;;;;;4841676;29;20125;-74
2022/06/15 13:45:21;;;;;;;3.60;2.10;;;29.20;94.20;;;;;;4843310;29;19971;-74
2022/06/15 13:47:56;;;;;;;4.00;2.10;;;29.00;94.80;;;;;;4841306;29;20030;-76
2022/06/15 13:50:51;;;;;;;4.90;2.08;;;28.80;95.50;;;;;;4843476;29;20113;-74
2022/06/15 13:53:52;;;;;;;5.00;2.17;;;28.80;96.20;;;;;;4843179;29;20044;-80
2022/06/15 13:56:21;;;;;;;4.05;2.45;;;28.70;96.80;;;;;;4843191;29;20038;-79
2022/06/15 13:59:08;;;;;;;5.07;2.53;;;28.70;96.60;;;;;;4840394;29;20038;-77
2022/06/15 14:01:49;;;;;;;3.95;1.95;;;28.70;97.00;;;;;;4842120;29;20097;-82
2022/06/15 14:04:32;;;;;;;5.70;2.00;;;28.70;96.80;;;;;;4841556;29;20531;-78
2022/06/15 14:07:10;;;;;;;10.23;2.20;;;28.70;96.00;;;;;;4842752;29;20395;-79
2022/06/15 14:09:45;;;;;;;7.65;2.58;;;28.80;96.80;;;;;;4826274;29;20038;-82
2022/06/15 14:12:26;;;;;;;10.20;1.98;;;28.90;96.10;;;;;;4838217;29;20041;-83
2022/06/15 14:15:06;;;;;;;5.90;2.20;;;28.90;95.40;;;;;;4840489;29;20050;-79
2022/06/15 14:17:49;;;;;;;8.60;1.95;;;28.90;94.40;;;;;;4840648;29;20048;-78
2022/06/15 14:20:35;;;;;;;9.80;1.75;;;28.90;95.30;;;;;;4841948;29;20111;-76
2022/06/15 14:23:05;;;;;;;5.45;2.03;;;28.80;97.10;;;;;;4826339;29;20115;-80
2022/06/15 14:25:39;;;;;;;4.78;1.85;;;28.70;97.20;;;;;;4826077;29;20487;-77
2022/06/15 14:28:14;;;;;;;12.32;2.20;;;28.50;96.60;;;;;;4841919;29;20394;-80
2022/06/15 14:30:43;;;;;;;6.20;2.10;;;28.50;97.40;;;;;;4841377;29;20030;-75
2022/06/15 14:33:25;;;;;;;7.15;1.88;;;28.40;99.10;;;;;;4842738;29;20044;-79
2022/06/15 14:36:17;;;;;;;3.80;2.05;;;28.30;99.40;;;;;;4842343;29;20135;-77
2022/06/15 14:38:58;;;;;;;41.33;28.98;;;28.40;98.80;;;;;;4842134;29;20499;-80
2022/06/15 14:41:35;;;;;;;60.30;39.00;;;28.40;98.80;;;;;;4841585;29;20075;-78
2022/06/15 14:44:03;;;;;;;4.45;2.28;;;28.40;99.70;;;;;;4841976;29;20022;-80
2022/06/15 14:46:40;;;;;;;5.18;1.83;;;28.30;99.80;;;;;;4840965;29;20057;-79
2022/06/15 14:49:08;;;;;;;3.28;1.90;;;28.30;99.90;;;;;;4842217;29;20034;-80
2022/06/15 14:51:34;;;;;;;5.95;2.22;;;28.20;97.10;;;;;;4841791;29;20066;-78
2022/06/15 14:54:13;;;;;;;9.68;2.78;;;28.10;98.20;;;;;;4841325;29;20092;-80
2022/06/15 14:56:48;;;;;;;4.00;2.15;;;28.00;99.20;;;;;;4841944;29;20514;-80
2022/06/15 14:59:17;;;;;;;5.30;2.13;;;27.90;99.70;;;;;;4840129;29;20034;-82
2022/06/15 15:01:57;;;;;;;6.85;2.17;;;27.90;98.10;;;;;;4841550;29;20118;-78
2022/06/15 15:04:24;;;;;;;9.57;2.47;;;27.90;97.70;;;;;;4842531;29;20045;-80
2022/06/15 15:07:00;;;;;;;5.00;2.38;;;28.00;97.80;;;;;;4841140;29;20586;-78
2022/06/15 15:09:28;;;;;;;6.20;2.35;;;28.00;98.20;;;;;;4841667;29;20042;-78
2022/06/15 15:11:54;;;;;;;5.75;2.17;;;28.00;97.90;;;;;;4841560;29;20053;-79
2022/06/15 15:14:32;;;;;;;9.05;2.40;;;28.00;98.40;;;;;;4840951;29;20038;-78
2022/06/15 15:17:02;;;;;;;4.05;2.53;;;27.90;98.30;;;;;;4838580;29;20446;-78
2022/06/15 15:19:35;;;;;;;5.78;2.05;;;27.90;99.10;;;;;;4841343;29;20091;-78
2022/06/15 15:22:14;;;;;;;7.65;3.30;;;27.90;98.80;;;;;;4825707;29;20053;-78
2022/06/15 15:24:57;;;;;;;4.20;2.10;;;27.80;99.90;;;;;;4840945;29;20484;-78
2022/06/15 15:39:13;;;;;;;5.85;2.47;;;27.90;99.70;;;;;;4841147;29;20045;-81
2022/06/15 15:41:39;;;;;;;7.68;2.42;;;27.90;98.30;;;;;;4838894;29;20098;-78
2022/06/15 15:44:05;;;;;;;10.32;2.75;;;28.00;98.10;;;;;;4824298;29;20552;-82
2022/06/15 15:46:34;;;;;;;4.85;2.05;;;27.90;97.70;;;;;;4840056;29;20029;-81
2022/06/15 15:49:01;;;;;;;4.07;2.10;;;27.90;97.30;;;;;;4841438;29;20116;-82
2022/06/15 15:51:27;;;;;;;6.72;2.60;;;27.80;97.30;;;;;;4841205;29;20070;-82
2022/06/15 15:53:53;;;;;;;8.63;2.45;;;27.80;98.20;;;;;;4841190;29;20117;-81
2022/06/15 15:56:19;;;;;;;12.00;2.60;;;27.80;98.30;;;;;;4841169;29;20254;-82
2022/06/15 15:58:48;;;;;;;8.18;2.28;;;27.80;98.00;;;;;;4840921;29;20026;-82
2022/06/15 16:01:14;;;;;;;8.02;2.30;;;27.70;97.10;;;;;;4824865;29;20770;-80
2022/06/15 16:03:41;;;;;;;5.07;2.03;;;27.70;96.80;;;;;;4841293;29;20495;-81
2022/06/15 16:06:08;;;;;;;7.32;2.55;;;27.70;96.80;;;;;;4841013;29;20033;-81
2022/06/15 16:08:34;;;;;;;5.82;2.10;;;27.60;97.00;;;;;;4841510;29;20162;-78
2022/06/15 16:11:00;;;;;;;3.63;2.42;;;27.50;96.00;;;;;;4840418;29;20102;-83
2022/06/15 16:13:26;;;;;;;7.60;2.58;;;27.40;96.10;;;;;;4840706;29;20515;-75
2022/06/15 16:15:56;;;;;;;7.95;2.53;;;27.30;97.20;;;;;;4839794;29;20033;-82
2022/06/15 16:18:23;;;;;;;4.20;2.15;;;27.20;96.70;;;;;;4844232;29;20044;-74
2022/06/15 16:20:51;;;;;;;8.15;2.35;;;27.20;96.50;;;;;;4841544;29;20034;-82
2022/06/15 16:23:20;;;;;;;7.85;2.13;;;27.10;96.90;;;;;;4841205;29;20101;-81
2022/06/15 16:25:46;;;;;;;4.97;2.42;;;27.00;96.80;;;;;;4841187;29;20037;-77
2022/06/15 16:28:14;;;;;;;8.98;2.53;;;27.00;97.20;;;;;;4842759;29;20115;-78
2022/06/15 16:30:41;;;;;;;5.00;2.85;;;27.00;97.40;;;;;;4844610;29;20545;-79
2022/06/15 16:33:07;;;;;;;4.95;2.35;;;26.90;97.20;;;;;;4844587;29;20117;-77
2022/06/15 16:35:37;;;;;;;6.88;2.40;;;26.90;97.30;;;;;;4843323;29;20030;-75
2022/06/15 16:38:07;;;;;;;4.55;2.17;;;26.90;97.50;;;;;;4844656;29;20081;-74
2022/06/15 16:40:33;;;;;;;8.07;2.08;;;26.80;97.90;;;;;;4844674;29;20034;-74
2022/06/15 16:42:59;;;;;;;17.02;2.47;;;26.70;99.00;;;;;;4844529;29;20038;-73
2022/06/15 16:45:28;;;;;;;2.85;2.33;;;26.70;99.30;;;;;;4842777;29;20487;-73
2022/06/15 16:47:53;;;;;;;5.95;3.35;;;26.60;99.90;;;;;;4842511;29;20076;-74
2022/06/15 16:50:19;;;;;;;11.05;3.42;;;26.60;99.80;;;;;;4843182;29;20061;-74
2022/06/15 16:52:45;;;;;;;10.95;3.13;;;26.50;98.90;;;;;;4842947;29;20124;-75
2022/06/15 16:55:25;;;;;;;8.90;3.25;;;26.50;99.00;;;;;;4843838;29;20494;-72
2022/06/15 16:57:51;;;;;;;6.45;3.33;;;26.50;99.80;;;;;;4843657;29;20042;-73
2022/06/15 17:00:18;;;;;;;9.55;3.47;;;26.40;99.90;;;;;;4835292;29;20050;-71
2022/06/15 17:02:44;;;;;;;7.90;3.25;;;26.40;99.90;;;;;;4841016;29;20050;-79
2022/06/15 17:05:10;;;;;;;7.47;3.45;;;26.40;99.90;;;;;;4840267;29;20045;-76
2022/06/15 17:07:36;;;;;;;6.43;3.55;;;26.50;99.90;;;;;;4829020;29;20563;-77
2022/06/15 17:10:04;;;;;;;14.90;3.13;;;26.60;99.90;;;;;;4825617;29;20803;-81
2022/06/15 17:12:31;;;;;;;6.97;1.90;;;26.60;99.90;;;;;;4842079;29;20064;-79
2022/06/15 17:14:58;;;;;;;4.82;2.15;;;26.60;99.90;;;;;;4826828;29;20034;-78
2022/06/15 17:17:24;;;;;;;6.43;2.55;;;26.60;99.90;;;;;;4839540;29;20049;-79
2022/06/15 17:19:51;;;;;;;12.38;2.58;;;26.60;99.90;;;;;;4814535;29;20394;-80
2022/06/15 17:22:16;;;;;;;10.45;2.80;;;26.60;99.30;;;;;;4842533;29;20077;-79
2022/06/15 17:24:43;;;;;;;5.78;2.25;;;26.50;98.30;;;;;;4842305;29;20061;-80
2022/06/15 17:27:11;;;;;;;6.72;2.20;;;26.30;98.50;;;;;;4841847;29;20046;-80
2022/06/15 17:29:38;;;;;;;8.93;2.42;;;26.20;98.50;;;;;;4842562;29;20065;-81
2022/06/15 17:32:05;;;;;;;7.00;2.70;;;26.00;98.90;;;;;;4840662;29;20026;-81
2022/06/15 17:34:33;;;;;;;6.10;2.40;;;26.00;99.10;;;;;;4840801;29;20041;-80
2022/06/15 17:37:00;;;;;;;6.28;2.85;;;25.90;99.30;;;;;;4842775;29;20053;-81
2022/06/15 17:39:26;;;;;;;12.73;3.00;;;25.90;99.30;;;;;;4841650;29;20483;-80
2022/06/15 17:41:54;;;;;;;10.73;3.42;;;25.80;99.50;;;;;;4842713;29;20106;-83
2022/06/15 17:44:22;;;;;;;7.93;3.95;;;25.90;99.70;;;;;;4842978;29;20077;-79
2022/06/15 17:46:48;;;;;;;12.05;2.88;;;25.80;99.80;;;;;;4843768;29;20498;-82
2022/06/15 17:49:16;;;;;;;12.90;3.70;;;25.90;99.90;;;;;;4826944;29;20506;-81
2022/06/15 17:51:43;;;;;;;11.68;3.60;;;25.90;99.90;;;;;;4843170;29;20080;-81
2022/06/15 17:54:09;;;;;;;10.48;3.58;;;25.90;99.90;;;;;;4843465;29;20038;-84
2022/06/15 17:56:37;;;;;;;19.05;5.03;;;26.00;99.90;;;;;;4827179;29;20056;-83
2022/06/15 17:59:05;;;;;;;17.40;6.13;;;26.00;99.90;;;;;;4843695;29;20034;-84
2022/06/15 18:01:30;;;;;;;10.80;5.13;;;26.00;99.90;;;;;;4843601;29;20487;-84
2022/06/15 18:03:56;;;;;;;10.02;5.53;;;26.00;99.90;;;;;;4843388;29;20105;-78
2022/06/15 18:06:22;;;;;;;12.85;5.30;;;26.10;99.90;;;;;;4843554;29;20026;-80
2022/06/15 18:08:49;;;;;;;9.20;3.88;;;26.10;99.90;;;;;;4842622;29;20120;-83
2022/06/15 18:11:15;;;;;;;9.95;3.50;;;26.10;99.90;;;;;;4842534;29;20049;-80
2022/06/15 18:13:47;;;;;;;16.17;3.63;;;26.10;99.90;;;;;;4842946;29;20026;-84
2022/06/15 18:16:36;;;;;;;11.52;2.97;;;26.10;99.90;;;;;;4843098;29;20041;-88
2022/06/15 18:19:12;;;;;;;17.98;4.47;;;26.10;99.90;;;;;;4842371;29;20041;-77
2022/06/15 18:21:40;;;;;;;9.20;3.35;;;26.10;99.90;;;;;;4826500;29;20084;-84
2022/06/15 18:24:12;;;;;;;7.43;3.40;;;26.00;99.90;;;;;;4841971;29;20038;-79
2022/06/15 18:26:46;;;;;;;10.45;2.55;;;26.00;99.90;;;;;;4842012;29;20442;-82
2022/06/15 18:29:12;;;;;;;4.07;2.90;;;25.90;99.90;;;;;;4842423;29;20037;-81
2022/06/15 18:31:40;;;;;;;7.10;3.13;;;25.90;99.90;;;;;;4843024;29;20038;-83
2022/06/15 18:34:11;;;;;;;7.70;3.05;;;25.70;99.90;;;;;;4826805;29;20034;-81
2022/06/15 18:36:37;;;;;;;8.63;2.47;;;25.70;99.90;;;;;;4826124;29;20440;-80
2022/06/15 18:39:04;;;;;;;5.88;2.70;;;25.60;99.90;;;;;;4842499;29;20062;-81
2022/06/15 18:41:30;;;;;;;10.98;4.40;;;25.60;99.90;;;;;;4842193;29;20124;-81
2022/06/15 18:49:24;;;;;;;5.93;3.67;;;25.50;99.90;;;;;;4841402;29;20058;-81
2022/06/15 18:51:50;;;;;;;11.70;3.83;;;25.60;99.90;;;;;;4841549;29;20038;-77
2022/06/15 18:54:16;;;;;;;13.27;3.88;;;25.50;99.90;;;;;;4842535;29;20030;-81
2022/06/15 18:56:42;;;;;;;7.88;5.57;;;25.50;99.90;;;;;;4842354;29;20509;-80
2022/06/15 18:59:10;;;;;;;12.05;4.00;;;25.40;99.90;;;;;;4841886;29;20065;-82
2022/06/15 19:01:36;;;;;;;7.45;3.20;;;25.40;99.90;;;;;;4842001;29;20038;-77
2022/06/15 19:04:02;;;;;;;7.82;3.45;;;25.30;99.90;;;;;;4842281;29;20588;-80
2022/06/15 19:06:29;;;;;;;6.85;3.00;;;25.30;99.90;;;;;;4840247;29;20038;-81
2022/06/15 19:08:55;;;;;;;11.07;3.10;;;25.30;99.90;;;;;;4841570;29;20038;-80
2022/06/15 19:11:22;;;;;;;11.15;3.10;;;25.30;99.90;;;;;;4840989;29;20061;-77
2022/06/15 19:13:49;;;;;;;7.65;3.47;;;25.20;99.90;;;;;;4824374;29;20388;-81
2022/06/15 19:16:15;;;;;;;8.27;2.83;;;25.20;99.90;;;;;;4824443;29;20531;-77
2022/06/15 19:18:41;;;;;;;7.53;2.92;;;25.20;99.90;;;;;;4840755;29;20030;-78
2022/06/15 19:21:08;;;;;;;7.72;3.30;;;25.10;99.90;;;;;;4841315;29;20492;-83
2022/06/15 19:23:35;;;;;;;5.80;3.40;;;25.10;99.90;;;;;;4840615;29;20049;-80
2022/06/15 19:26:01;;;;;;;10.15;3.60;;;25.10;99.90;;;;;;4824089;29;20038;-78
2022/06/15 19:28:28;;;;;;;4.53;2.38;;;25.10;99.90;;;;;;4841596;29;20045;-83
2022/06/15 19:30:57;;;;;;;11.77;4.88;;;25.00;99.90;;;;;;4826204;29;20068;-79
2022/06/15 19:33:23;;;;;;;7.75;3.45;;;25.00;99.90;;;;;;4841609;29;20093;-81
2022/06/15 19:35:49;;;;;;;13.65;2.92;;;24.90;99.90;;;;;;4841299;29;20038;-80
2022/06/15 19:38:14;;;;;;;10.32;3.97;;;24.90;99.90;;;;;;4841263;29;20472;-81
2022/06/15 19:40:42;;;;;;;6.53;2.53;;;24.80;99.90;;;;;;4824552;29;20376;-81
2022/06/15 19:43:15;;;;;;;3.60;2.58;;;24.70;99.90;;;;;;4840515;29;20503;-83
2022/06/15 19:45:42;;;;;;;8.88;2.65;;;24.70;99.90;;;;;;4841028;29;20061;-84
2022/06/15 19:48:08;;;;;;;8.43;3.17;;;24.60;99.90;;;;;;4825141;29;20046;-84
2022/06/15 19:50:36;;;;;;;6.38;2.75;;;24.50;99.90;;;;;;4841328;29;20034;-83
2022/06/15 19:53:03;;;;;;;11.65;2.95;;;24.50;99.90;;;;;;4841109;29;20034;-82
2022/06/15 19:55:29;;;;;;;9.27;3.10;;;24.50;99.90;;;;;;4844258;29;20033;-82
2022/06/15 19:57:55;;;;;;;13.95;3.30;;;24.50;99.90;;;;;;4824813;29;20038;-82
2022/06/15 20:00:22;;;;;;;5.80;3.00;;;24.40;99.90;;;;;;4846185;29;20038;-82
2022/06/15 20:02:49;;;;;;;14.93;2.90;;;24.40;99.90;;;;;;4849640;29;20046;-82
2022/06/15 20:05:15;;;;;;;6.85;2.88;;;24.30;99.90;;;;;;4849594;29;20105;-81
2022/06/15 20:07:49;;;;;;;11.35;3.30;;;24.20;99.90;;;;;;4851825;29;20070;-80
2022/06/15 20:10:20;;;;;;;7.60;3.13;;;24.10;99.90;;;;;;4849323;29;20075;-82
2022/06/15 20:12:47;;;;;;;6.47;3.35;;;24.10;99.90;;;;;;4849812;29;20052;-75
2022/06/15 20:15:13;;;;;;;24.45;7.85;;;24.10;99.90;;;;;;4848219;29;20038;-79
2022/06/15 20:17:45;;;;;;;17.95;7.55;;;24.10;99.90;;;;;;4830313;29;20044;-82
2022/06/15 20:20:14;;;;;;;9.98;4.80;;;24.10;99.90;;;;;;4839753;29;20034;-79
2022/06/15 20:22:48;;;;;;;21.88;3.60;;;24.20;99.90;;;;;;4854926;29;20050;-82
2022/06/15 20:25:15;;;;;;;10.20;3.33;;;24.20;99.90;;;;;;4848111;29;20025;-83
2022/06/15 20:27:49;;;;;;;8.57;3.40;;;24.20;99.90;;;;;;4841369;29;20113;-83
2022/06/15 20:30:15;;;;;;;9.75;3.17;;;24.30;99.90;;;;;;4844229;29;20515;-83
2022/06/15 20:32:41;;;;;;;7.68;3.60;;;24.30;99.90;;;;;;4843580;29;20056;-76
2022/06/15 20:35:10;;;;;;;18.85;3.42;;;24.30;99.90;;;;;;4848183;29;20026;-81
2022/06/15 20:37:38;;;;;;;6.38;3.00;;;24.30;99.90;;;;;;4851256;29;20026;-79
2022/06/15 20:40:06;;;;;;;7.53;2.60;;;24.30;99.90;;;;;;4844805;29;20420;-77
2022/06/15 20:42:42;;;;;;;6.55;2.72;;;24.30;99.90;;;;;;4848931;29;20058;-78
2022/06/15 20:45:11;;;;;;;10.45;4.85;;;24.30;99.90;;;;;;4847241;29;20026;-82
2022/06/15 20:47:42;;;;;;;9.30;3.58;;;24.20;99.90;;;;;;4849382;29;20022;-77
2022/06/15 20:50:12;;;;;;;4.95;3.05;;;24.30;99.90;;;;;;4849480;29;20030;-79
2022/06/15 20:52:39;;;;;;;9.43;3.20;;;24.30;99.90;;;;;;4848763;29;20031;-79
2022/06/15 20:55:08;;;;;;;6.05;3.15;;;24.30;99.90;;;;;;4850002;29;20037;-78
2022/06/15 20:57:34;;;;;;;7.00;3.33;;;24.20;99.90;;;;;;4832521;29;20055;-80
2022/06/15 21:00:00;;;;;;;6.78;3.60;;;24.20;99.90;;;;;;4833911;29;20083;-79
2022/06/15 21:02:26;;;;;;;7.68;3.28;;;24.20;99.90;;;;;;4849019;29;20046;-83
2022/06/15 21:04:53;;;;;;;6.13;3.60;;;24.10;99.90;;;;;;4847472;29;20026;-78
2022/06/15 21:07:22;;;;;;;6.60;3.45;;;24.10;99.90;;;;;;4846360;29;20038;-78
2022/06/15 21:18:13;;;;;;;7.97;3.28;;;24.10;99.90;;;;;;4851718;29;20544;-77
2022/06/15 21:20:39;;;;;;;9.27;3.83;;;24.10;99.90;;;;;;4851907;29;20078;-78
2022/06/15 21:23:05;;;;;;;10.93;3.47;;;24.10;99.90;;;;;;4844297;29;20042;-81
2022/06/15 21:25:35;;;;;;;7.72;3.63;;;24.10;99.90;;;;;;4853038;29;20034;-82
2022/06/15 21:28:04;;;;;;;8.52;3.22;;;24.00;99.90;;;;;;4849165;29;20037;-79
2022/06/15 21:30:30;;;;;;;5.47;3.67;;;23.90;99.90;;;;;;4849797;29;20134;-80
2022/06/15 21:32:57;;;;;;;8.98;4.18;;;23.90;99.90;;;;;;4845507;29;20078;-84
2022/06/15 21:35:23;;;;;;;5.45;3.92;;;23.90;99.90;;;;;;4848805;29;20066;-80
2022/06/15 21:37:49;;;;;;;9.82;3.75;;;23.90;99.90;;;;;;4835002;29;20114;-78
2022/06/15 21:40:17;;;;;;;11.82;3.92;;;23.90;99.90;;;;;;4831354;29;20037;-78
2022/06/15 21:42:45;;;;;;;6.88;4.35;;;23.90;99.90;;;;;;4827115;29;20057;-80
2022/06/15 21:45:15;;;;;;;5.38;3.63;;;23.90;99.90;;;;;;4843171;29;20037;-82
2022/06/15 21:47:46;;;;;;;8.82;4.43;;;23.90;99.90;;;;;;4843501;29;20063;-77
2022/06/15 21:50:13;;;;;;;9.13;3.95;;;23.90;99.90;;;;;;4843800;29;20483;-78
2022/06/15 21:52:40;;;;;;;12.02;5.40;;;23.90;99.90;;;;;;4843278;29;20034;-78
2022/06/15 21:55:07;;;;;;;9.77;4.57;;;23.90;99.90;;;;;;4843611;29;20041;-82
2022/06/15 21:57:32;;;;;;;9.52;4.05;;;24.00;99.90;;;;;;4843541;29;20042;-81
2022/06/15 21:59:58;;;;;;;9.20;4.47;;;23.90;99.90;;;;;;4842750;29;20540;-85
2022/06/15 22:02:24;;;;;;;10.45;4.07;;;24.00;99.90;;;;;;4826926;29;20102;-81
2022/06/15 22:04:49;;;;;;;11.68;3.15;;;23.90;99.90;;;;;;4843810;29;20038;-79
2022/06/15 22:07:16;;;;;;;8.27;3.72;;;23.90;99.90;;;;;;4844073;29;20034;-79
2022/06/15 22:09:42;;;;;;;7.53;3.70;;;23.80;99.90;;;;;;4827160;29;20495;-80
2022/06/15 22:12:08;;;;;;;5.40;3.22;;;23.70;99.90;;;;;;4843523;29;20129;-82
2022/06/15 22:14:33;;;;;;;8.00;3.63;;;23.70;99.90;;;;;;4843893;29;20440;-78
2022/06/15 22:16:59;;;;;;;10.10;3.78;;;23.60;99.90;;;;;;4843502;29;20128;-79
2022/06/15 22:19:26;;;;;;;8.85;3.58;;;23.60;99.90;;;;;;4843397;29;20507;-80
2022/06/15 22:21:52;;;;;;;6.97;3.85;;;23.60;99.90;;;;;;4843237;29;20042;-79
2022/06/15 22:24:20;;;;;;;7.50;3.40;;;23.50;99.90;;;;;;4843661;29;20070;-79
2022/06/15 22:26:48;;;;;;;14.00;4.05;;;23.50;99.90;;;;;;4842891;29;20057;-78
2022/06/15 22:29:15;;;;;;;12.10;3.42;;;23.50;99.90;;;;;;4843944;29;20030;-79
2022/06/15 22:31:41;;;;;;;8.90;3.80;;;23.50;99.90;;;;;;4844093;29;20385;-78
2022/06/15 22:34:07;;;;;;;10.93;3.90;;;23.50;99.90;;;;;;4843687;29;20124;-79
2022/06/15 22:36:33;;;;;;;8.45;3.20;;;23.40;99.90;;;;;;4844144;29;20044;-77
2022/06/15 22:39:00;;;;;;;8.85;3.17;;;23.40;99.90;;;;;;4831769;29;20121;-76
2022/06/15 22:41:26;;;;;;;5.38;3.42;;;23.30;99.90;;;;;;4844115;29;20034;-78
2022/06/15 22:43:52;;;;;;;7.75;3.97;;;23.30;99.90;;;;;;4843847;29;20436;-80
2022/06/15 22:56:50;;;;;;;7.82;3.90;;;23.30;99.90;;;;;;5075035;28;20896;-77
2022/06/15 22:59:16;;;;;;;7.50;3.67;;;23.30;99.90;;;;;;5073699;28;20025;-78
2022/06/15 23:01:41;;;;;;;9.55;4.05;;;23.20;99.90;;;;;;5074456;28;20021;-76
2022/06/15 23:04:08;;;;;;;4.85;3.53;;;23.20;99.90;;;;;;5075490;28;20103;-77
2022/06/15 23:06:34;;;;;;;6.13;3.28;;;23.20;99.90;;;;;;5075082;28;20029;-77
2022/06/15 23:08:59;;;;;;;7.13;3.13;;;23.10;99.90;;;;;;5073308;28;20021;-77
2022/06/15 23:11:25;;;;;;;8.38;3.70;;;23.10;99.90;;;;;;5075700;28;20038;-77
2022/06/15 23:13:51;;;;;;;6.22;3.45;;;23.00;99.90;;;;;;5072032;28;20025;-78
2022/06/15 23:16:16;;;;;;;7.10;4.43;;;22.90;99.90;;;;;;5074964;28;20025;-78
2022/06/15 23:18:43;;;;;;;17.23;4.30;;;22.80;99.90;;;;;;5072141;28;20078;-77
2022/06/15 23:21:19;;;;;;;10.07;3.90;;;22.70;99.90;;;;;;5077102;28;20020;-78
2022/06/15 23:23:46;;;;;;;4.53;3.40;;;22.60;99.90;;;;;;5074403;28;20070;-78
2022/06/15 23:26:12;;;;;;;3.72;3.25;;;22.60;99.90;;;;;;5071844;28;20389;-77
2022/06/15 23:28:38;;;;;;;7.80;3.35;;;22.60;99.90;;;;;;5071887;28;20092;-78
2022/06/15 23:31:11;;;;;;;8.93;3.22;;;22.60;99.90;;;;;;5071169;28;20074;-78
2022/06/15 23:33:38;;;;;;;5.25;3.35;;;22.60;99.90;;;;;;5071131;28;20068;-80